createdAt,value
2018-05-07T00:01:15.262Z,95186.95
2018-05-07T00:03:42.787Z,95181.19
2018-05-07T00:06:10.358Z,95169.47
2018-05-07T00:08:37.895Z,95168.51
2018-05-07T00:11:05.428Z,95166.93
2018-05-07T00:13:32.975Z,95163.85
2018-05-07T00:16:00.489Z,95167.96
2018-05-07T00:18:28.018Z,95137.80
2018-05-07T00:20:55.536Z,95160.70
2018-05-07T00:23:23.073Z,95145.94
2018-05-07T00:25:50.634Z,95138.59
2018-05-07T00:28:18.190Z,95132.63
2018-05-07T00:30:45.754Z,95117.24
2018-05-07T00:33:13.351Z,95119.12
2018-05-07T00:35:40.787Z,95122.86
2018-05-07T00:38:08.335Z,95131.14
2018-05-07T00:40:35.863Z,95131.49
2018-05-07T00:43:03.594Z,95127.23
2018-05-07T00:45:31.124Z,95130.00
2018-05-07T00:47:58.636Z,95137.79
2018-05-07T00:50:26.132Z,95140.91
2018-05-07T00:52:53.666Z,95144.58
2018-05-07T00:55:21.953Z,95136.06
2018-05-07T00:57:49.455Z,95147.83
2018-05-07T01:00:17.019Z,95144.20
2018-05-07T01:02:44.540Z,95138.74
2018-05-07T01:05:12.665Z,95133.78
2018-05-07T01:07:40.207Z,95143.89
2018-05-07T01:10:08.093Z,95145.98
2018-05-07T01:12:35.616Z,95144.41
2018-05-07T01:15:03.148Z,95136.94
2018-05-07T01:17:30.676Z,95137.59
2018-05-07T01:19:58.184Z,95149.33
2018-05-07T01:22:25.696Z,95145.51
2018-05-07T01:24:53.229Z,95144.28
2018-05-07T01:27:20.980Z,95145.92
2018-05-07T01:29:48.496Z,95141.89
2018-05-07T01:32:16.013Z,95148.09
2018-05-07T01:34:43.519Z,95146.63
2018-05-07T01:37:11.037Z,95143.91
2018-05-07T01:39:38.552Z,95139.48
2018-05-07T01:42:06.050Z,95141.46
2018-05-07T01:44:33.567Z,95150.38
2018-05-07T01:47:01.104Z,95150.20
2018-05-07T01:49:28.641Z,95142.89
2018-05-07T01:51:56.151Z,95144.14
2018-05-07T01:54:23.663Z,95145.47
2018-05-07T01:56:51.159Z,95148.52
2018-05-07T01:59:18.691Z,95149.88
2018-05-07T02:01:46.216Z,95163.28
2018-05-07T02:04:13.727Z,95160.92
2018-05-07T02:06:41.227Z,95163.30
2018-05-07T02:09:08.779Z,95159.76
2018-05-07T02:11:36.287Z,95172.92
2018-05-07T02:14:03.800Z,95169.16
2018-05-07T02:16:31.312Z,95166.42
2018-05-07T02:18:58.818Z,95160.98
2018-05-07T02:21:26.342Z,95166.73
2018-05-07T02:23:53.860Z,95172.72
2018-05-07T02:26:21.403Z,95176.60
2018-05-07T02:28:48.923Z,95179.61
2018-05-07T02:31:16.503Z,95179.34
2018-05-07T02:33:43.941Z,95178.05
2018-05-07T02:36:11.484Z,95179.30
2018-05-07T02:38:38.983Z,95182.09
2018-05-07T02:41:06.478Z,95181.53
2018-05-07T02:43:34.011Z,95176.43
2018-05-07T02:46:01.519Z,95181.30
2018-05-07T02:48:29.073Z,95182.56
2018-05-07T02:50:56.595Z,95187.80
2018-05-07T02:53:24.155Z,95191.72
2018-05-07T02:55:51.675Z,95187.05
2018-05-07T02:58:19.223Z,95186.70
2018-05-07T03:00:46.727Z,95186.53
2018-05-07T03:03:14.275Z,95180.07
2018-05-07T03:05:42.007Z,95192.61
2018-05-07T03:08:09.588Z,95188.75
2018-05-07T03:10:37.093Z,95185.30
2018-05-07T03:13:04.626Z,95188.31
2018-05-07T03:15:32.176Z,95186.15
2018-05-07T03:17:59.729Z,95183.77
2018-05-07T03:20:27.254Z,95179.90
2018-05-07T03:22:54.809Z,95188.71
2018-05-07T03:25:22.346Z,95195.77
2018-05-07T03:27:49.872Z,95184.27
2018-05-07T03:30:17.430Z,95195.11
2018-05-07T03:32:44.934Z,95200.52
2018-05-07T03:35:12.448Z,95199.95
2018-05-07T03:37:39.967Z,95198.06
2018-05-07T03:40:07.480Z,95200.72
2018-05-07T03:42:35.007Z,95204.91
2018-05-07T03:45:02.592Z,95203.38
2018-05-07T03:47:30.221Z,95198.66
2018-05-07T03:49:57.794Z,95203.03
2018-05-07T03:52:25.307Z,95202.80
2018-05-07T03:54:52.828Z,95199.50
2018-05-07T03:57:20.342Z,95199.36
2018-05-07T03:59:47.945Z,95206.06
2018-05-07T04:02:15.417Z,95204.56
2018-05-07T04:04:42.927Z,95220.20
2018-05-07T04:07:11.404Z,95213.59
2018-05-07T04:09:38.926Z,95214.95
2018-05-07T04:12:06.479Z,95225.61
2018-05-07T04:14:34.024Z,95217.77
2018-05-07T04:17:13.152Z,95226.84
2018-05-07T04:19:52.419Z,95223.53
2018-05-07T04:22:31.668Z,95229.05
2018-05-07T04:24:59.179Z,95224.83
2018-05-07T04:27:26.765Z,95227.94
2018-05-07T04:29:54.587Z,95231.69
2018-05-07T04:32:22.115Z,95229.71
2018-05-07T04:34:49.627Z,95231.69
2018-05-07T04:37:17.179Z,95227.98
2018-05-07T04:39:44.683Z,95225.47
2018-05-07T04:42:12.195Z,95231.25
2018-05-07T04:44:39.695Z,95222.34
2018-05-07T04:47:07.195Z,95227.98
2018-05-07T04:49:34.717Z,95233.08
2018-05-07T04:52:03.096Z,95232.54
2018-05-07T04:54:30.624Z,95234.56
2018-05-07T04:56:58.770Z,95237.34
2018-05-07T04:59:26.515Z,95233.25
2018-05-07T05:01:54.102Z,95230.75
2018-05-07T05:04:21.612Z,95239.87
2018-05-07T05:06:49.157Z,95234.45
2018-05-07T05:09:16.655Z,95244.85
2018-05-07T05:11:45.163Z,95236.66
2018-05-07T05:14:12.771Z,95241.94
2018-05-07T05:16:40.315Z,95247.05
2018-05-07T05:19:07.883Z,95243.19
2018-05-07T05:21:35.399Z,95248.59
2018-05-07T05:24:02.935Z,95254.22
2018-05-07T05:26:30.500Z,95250.40
2018-05-07T05:28:58.008Z,95248.33
2018-05-07T05:31:25.552Z,95255.42
2018-05-07T05:33:53.142Z,95253.88
2018-05-07T05:36:20.739Z,95249.02
2018-05-07T05:38:48.739Z,95256.21
2018-05-07T05:41:16.305Z,95254.23
2018-05-07T05:43:43.912Z,95256.56
2018-05-07T05:46:11.407Z,95255.02
2018-05-07T05:48:39.021Z,95254.80
2018-05-07T05:51:06.551Z,95252.72
2018-05-07T05:53:34.089Z,95253.34
2018-05-07T05:56:01.627Z,95256.71
2018-05-07T05:58:29.183Z,95259.27
2018-05-07T06:00:56.772Z,95248.84
2018-05-07T06:03:24.338Z,95253.69
2018-05-07T06:05:51.912Z,95254.66
2018-05-07T06:08:19.881Z,95260.36
2018-05-07T06:10:48.199Z,95254.19
2018-05-07T06:13:15.752Z,95249.52
2018-05-07T06:15:43.290Z,95241.38
2018-05-07T06:18:10.830Z,95249.73
2018-05-07T06:20:38.383Z,95250.84
2018-05-07T06:23:05.974Z,95249.53
2018-05-07T06:25:33.487Z,95268.30
2018-05-07T06:28:01.050Z,95249.11
2018-05-07T06:30:28.659Z,95258.30
2018-05-07T06:32:56.260Z,95256.18
2018-05-07T06:35:23.784Z,95244.61
2018-05-07T06:37:51.363Z,95256.98
2018-05-07T06:40:18.970Z,95253.30
2018-05-07T06:42:46.616Z,95260.00
2018-05-07T06:45:14.233Z,95253.55
2018-05-07T06:47:41.819Z,95259.03
2018-05-07T06:50:09.417Z,95250.96
2018-05-07T06:52:37.081Z,95253.32
2018-05-07T06:55:05.099Z,95241.94
2018-05-07T06:57:32.659Z,95254.44
2018-05-07T07:00:00.256Z,95258.55
2018-05-07T07:02:27.931Z,95258.66
2018-05-07T07:04:55.444Z,95246.75
2018-05-07T07:07:23.129Z,95265.53
2018-05-07T07:09:50.623Z,95253.25
2018-05-07T07:12:18.115Z,95242.12
2018-05-07T07:14:45.677Z,95248.55
2018-05-07T07:17:13.167Z,95237.47
2018-05-07T07:19:40.680Z,95234.15
2018-05-07T07:22:08.195Z,95236.66
2018-05-07T07:24:35.727Z,95228.89
2018-05-07T07:27:03.225Z,95219.68
2018-05-07T07:29:31.743Z,95221.02
2018-05-07T07:31:59.283Z,95219.64
2018-05-07T07:34:26.809Z,95228.42
2018-05-07T07:36:54.383Z,95223.55
2018-05-07T07:39:21.893Z,95231.16
2018-05-07T07:41:49.404Z,95220.36
2018-05-07T07:44:17.014Z,95228.75
2018-05-07T07:46:44.592Z,95227.17
2018-05-07T07:49:12.164Z,95231.19
2018-05-07T07:51:39.676Z,95232.84
2018-05-07T07:54:07.189Z,95219.16
2018-05-07T07:56:34.690Z,95227.97
2018-05-07T07:59:02.192Z,95229.94
2018-05-07T08:01:29.688Z,95232.85
2018-05-07T08:03:57.199Z,95227.76
2018-05-07T08:06:24.734Z,95231.45
2018-05-07T08:08:52.237Z,95228.53
2018-05-07T08:11:19.735Z,95227.54
2018-05-07T08:13:47.243Z,95224.41
2018-05-07T08:16:14.736Z,95238.72
2018-05-07T08:18:42.240Z,95231.83
2018-05-07T08:21:09.743Z,95230.39
2018-05-07T08:23:37.250Z,95227.45
2018-05-07T08:26:04.754Z,95222.33
2018-05-07T08:28:32.248Z,95215.77
2018-05-07T08:30:59.743Z,95211.23
2018-05-07T08:33:27.259Z,95221.08
2018-05-07T08:35:54.768Z,95221.20
2018-05-07T08:38:22.262Z,95211.64
2018-05-07T08:40:49.766Z,95215.19
2018-05-07T08:43:17.262Z,95206.30
2018-05-07T08:45:44.779Z,95214.52
2018-05-07T08:48:12.278Z,95211.99
2018-05-07T08:50:39.783Z,95204.48
2018-05-07T08:53:07.380Z,95210.73
2018-05-07T08:55:34.864Z,95215.28
2018-05-07T08:58:02.372Z,95221.84
2018-05-07T09:00:29.928Z,95219.66
2018-05-07T09:02:57.480Z,95213.47
2018-05-07T09:05:24.984Z,95220.29
2018-05-07T09:07:52.489Z,95227.41
2018-05-07T09:10:20.006Z,95221.87
2018-05-07T09:12:47.526Z,95221.56
2018-05-07T09:15:15.032Z,95228.09
2018-05-07T09:17:42.537Z,95220.72
2018-05-07T09:20:10.048Z,95221.13
2018-05-07T09:22:37.553Z,95217.41
2018-05-07T09:25:05.043Z,95214.63
2018-05-07T09:27:32.535Z,95209.33
2018-05-07T09:30:00.025Z,95214.64
2018-05-07T09:32:27.529Z,95212.47
2018-05-07T09:34:55.039Z,95212.02
2018-05-07T09:37:22.533Z,95213.84
2018-05-07T09:39:50.049Z,95207.98
2018-05-07T09:42:17.551Z,95211.66
2018-05-07T09:44:45.055Z,95211.51
2018-05-07T09:47:12.591Z,95217.09
2018-05-07T09:49:40.100Z,95203.09
2018-05-07T09:52:07.596Z,95204.74
2018-05-07T09:54:35.092Z,95205.91
2018-05-07T09:57:02.650Z,95185.61
2018-05-07T09:59:30.158Z,95183.45
2018-05-07T10:01:57.650Z,95194.03
2018-05-07T10:04:25.144Z,95195.73
2018-05-07T10:06:52.662Z,95179.51
2018-05-07T10:09:20.237Z,95188.38
2018-05-07T10:11:47.736Z,95194.89
2018-05-07T10:14:15.278Z,95193.02
2018-05-07T10:16:42.790Z,95186.29
2018-05-07T10:19:10.396Z,95195.70
2018-05-07T10:21:37.896Z,95197.50
2018-05-07T10:24:05.420Z,95196.89
2018-05-07T10:26:32.918Z,95198.28
2018-05-07T10:29:00.473Z,95186.24
2018-05-07T10:31:28.028Z,95188.91
2018-05-07T10:33:55.522Z,95183.83
2018-05-07T10:36:23.036Z,95186.80
2018-05-07T10:38:50.540Z,95177.09
2018-05-07T10:41:18.055Z,95182.59
2018-05-07T10:43:45.563Z,95177.55
2018-05-07T10:46:13.104Z,95178.50
2018-05-07T10:48:40.643Z,95176.14
2018-05-07T10:51:08.137Z,95174.89
2018-05-07T10:53:35.639Z,95166.77
2018-05-07T10:56:03.144Z,95163.38
2018-05-07T10:58:30.648Z,95169.02
2018-05-07T11:00:58.187Z,95168.25
2018-05-07T11:03:25.693Z,95168.20
2018-05-07T11:05:53.243Z,95167.50
2018-05-07T11:08:20.802Z,95160.15
2018-05-07T11:10:48.303Z,95166.94
2018-05-07T11:13:15.815Z,95157.38
2018-05-07T11:15:43.323Z,95166.06
2018-05-07T11:18:10.835Z,95160.82
2018-05-07T11:20:38.341Z,95163.39
2018-05-07T11:23:06.619Z,95158.28
2018-05-07T11:25:34.126Z,95161.37
2018-05-07T11:28:01.671Z,95159.99
2018-05-07T11:30:29.354Z,95150.94
2018-05-07T11:32:56.984Z,95153.06
2018-05-07T11:35:24.499Z,95141.67
2018-05-07T11:37:52.050Z,95142.13
2018-05-07T11:40:19.590Z,95139.27
2018-05-07T11:42:47.095Z,95139.53
2018-05-07T11:45:14.595Z,95134.80
2018-05-07T11:47:42.104Z,95130.53
2018-05-07T11:50:09.622Z,95122.81
2018-05-07T11:52:37.129Z,95120.34
2018-05-07T11:55:04.658Z,95121.52
2018-05-07T11:57:32.179Z,95106.44
2018-05-07T11:59:59.682Z,95122.23
2018-05-07T12:02:27.239Z,95105.44
2018-05-07T12:04:54.707Z,95108.42
2018-05-07T12:07:22.208Z,95109.70
2018-05-07T12:09:49.784Z,95109.30
2018-05-07T12:12:17.291Z,95107.13
2018-05-07T12:14:44.830Z,95106.11
2018-05-07T12:17:12.364Z,95103.91
2018-05-07T12:19:40.691Z,95106.09
2018-05-07T12:22:08.344Z,95094.58
2018-05-07T12:24:37.043Z,95096.95
2018-05-07T12:27:04.628Z,95068.11
2018-05-07T12:29:32.155Z,95088.35
2018-05-07T12:31:59.664Z,95081.97
2018-05-07T12:34:27.206Z,95069.98
2018-05-07T12:36:54.718Z,95072.98
2018-05-07T12:39:22.235Z,95066.18
2018-05-07T12:41:49.782Z,95061.45
2018-05-07T12:44:17.301Z,95069.39
2018-05-07T12:46:44.861Z,95058.25
2018-05-07T12:49:12.366Z,95063.98
2018-05-07T12:51:39.869Z,95038.77
2018-05-07T12:54:07.416Z,95057.83
2018-05-07T12:56:34.937Z,95051.11
2018-05-07T12:59:02.502Z,95050.28
2018-05-07T13:01:29.989Z,95042.06
2018-05-07T13:03:57.549Z,95046.61
2018-05-07T13:06:25.116Z,95053.06
2018-05-07T13:08:52.634Z,95052.33
2018-05-07T13:11:20.155Z,95048.83
2018-05-07T13:13:47.656Z,95042.64
2018-05-07T13:16:15.261Z,95035.16
2018-05-07T13:18:42.775Z,95040.52
2018-05-07T13:21:10.275Z,95035.02
2018-05-07T13:23:37.784Z,95035.33
2018-05-07T13:26:05.299Z,95018.53
2018-05-07T13:28:32.947Z,95028.10
2018-05-07T13:31:00.461Z,95019.59
2018-05-07T13:33:27.978Z,95022.43
2018-05-07T13:35:55.541Z,95014.30
2018-05-07T13:38:23.049Z,95018.31
2018-05-07T13:40:50.636Z,95010.20
2018-05-07T13:43:18.406Z,94995.80
2018-05-07T13:45:46.131Z,94994.83
2018-05-07T13:48:15.117Z,94993.33
2018-05-07T13:50:42.683Z,94987.48
2018-05-07T13:53:10.193Z,94985.20
2018-05-07T13:55:37.704Z,94986.37
2018-05-07T13:58:05.204Z,94972.95
2018-05-07T14:00:32.739Z,94972.19
2018-05-07T14:03:00.655Z,94972.63
2018-05-07T14:05:28.144Z,94960.86
2018-05-07T14:07:55.647Z,94966.72
2018-05-07T14:10:23.155Z,94947.74
2018-05-07T14:12:50.688Z,94954.94
2018-05-07T14:15:18.195Z,94951.50
2018-05-07T14:17:45.695Z,94944.62
2018-05-07T14:20:13.200Z,94944.52
2018-05-07T14:22:40.729Z,94942.43
2018-05-07T14:25:08.287Z,94942.58
2018-05-07T14:27:35.795Z,94936.20
2018-05-07T14:30:04.751Z,94943.63
2018-05-07T14:32:32.257Z,94949.91
2018-05-07T14:34:59.750Z,94943.59
2018-05-07T14:37:27.258Z,94934.47
2018-05-07T14:39:54.774Z,94944.29
2018-05-07T14:42:22.292Z,94944.09
2018-05-07T14:44:49.805Z,94937.28
2018-05-07T14:47:17.315Z,94938.25
2018-05-07T14:49:44.821Z,94940.37
2018-05-07T14:52:12.362Z,94950.50
2018-05-07T14:54:39.874Z,94951.05
2018-05-07T14:57:07.383Z,94942.42
2018-05-07T14:59:34.926Z,94940.34
2018-05-07T15:02:02.463Z,94940.10
2018-05-07T15:04:29.975Z,94934.80
2018-05-07T15:06:57.496Z,94935.53
2018-05-07T15:09:25.031Z,94936.55
2018-05-07T15:11:52.666Z,94918.11
2018-05-07T15:14:24.035Z,94932.52
2018-05-07T15:16:51.573Z,94926.53
2018-05-07T15:19:19.128Z,94916.59
2018-05-07T15:21:46.628Z,94928.83
2018-05-07T15:24:14.182Z,94927.45
2018-05-07T15:26:41.798Z,94927.49
2018-05-07T15:29:09.389Z,94921.64
2018-05-07T15:31:36.904Z,94923.97
2018-05-07T15:34:04.442Z,94919.88
2018-05-07T15:36:31.948Z,94925.72
2018-05-07T15:38:59.455Z,94920.67
2018-05-07T15:41:26.975Z,94928.97
2018-05-07T15:43:54.489Z,94929.08
2018-05-07T15:46:22.035Z,94918.20
2018-05-07T15:48:49.551Z,94918.88
2018-05-07T15:51:17.067Z,94919.71
2018-05-07T15:53:44.575Z,94899.99
2018-05-07T15:56:12.088Z,94917.31
2018-05-07T15:58:39.622Z,94924.50
2018-05-07T16:01:07.175Z,94921.48
2018-05-07T16:03:34.696Z,94920.05
2018-05-07T16:06:02.203Z,94918.43
2018-05-07T16:08:29.817Z,94916.23
2018-05-07T16:10:57.353Z,94912.84
2018-05-07T16:13:25.780Z,94914.27
2018-05-07T16:15:53.327Z,94900.05
2018-05-07T16:18:20.880Z,94921.08
2018-05-07T16:20:48.446Z,94924.45
2018-05-07T16:23:16.136Z,94917.65
2018-05-07T16:25:43.544Z,94916.77
2018-05-07T16:28:11.145Z,94927.09
2018-05-07T16:30:38.617Z,94916.09
2018-05-07T16:33:06.180Z,94917.86
2018-05-07T16:35:33.704Z,94925.30
2018-05-07T16:38:01.223Z,94927.91
2018-05-07T16:40:28.783Z,94910.51
2018-05-07T16:42:56.367Z,94911.59
2018-05-07T16:45:24.137Z,94928.89
2018-05-07T16:47:51.704Z,94923.84
2018-05-07T16:50:19.243Z,94908.91
2018-05-07T16:52:46.775Z,94934.74
2018-05-07T16:55:14.296Z,94925.39
2018-05-07T16:57:41.816Z,94930.57
2018-05-07T17:00:09.698Z,94932.84
2018-05-07T17:02:37.343Z,94929.73
2018-05-07T17:05:04.871Z,94932.31
2018-05-07T17:07:32.398Z,94932.41
2018-05-07T17:10:00.102Z,94947.86
2018-05-07T17:12:27.630Z,94948.91
2018-05-07T17:14:55.278Z,94950.97
2018-05-07T17:17:22.707Z,94943.14
2018-05-07T17:19:50.200Z,94943.39
2018-05-07T17:22:17.707Z,94958.83
2018-05-07T17:24:45.248Z,94958.72
2018-05-07T17:27:12.859Z,94964.86
2018-05-07T17:29:40.356Z,94959.47
2018-05-07T17:32:07.892Z,94956.80
2018-05-07T17:34:35.437Z,94967.42
2018-05-07T17:37:03.068Z,94976.85
2018-05-07T17:39:30.621Z,94971.73
2018-05-07T17:41:58.111Z,94973.85
2018-05-07T17:44:37.392Z,94974.47
2018-05-07T17:47:16.712Z,94983.86
2018-05-07T17:49:44.244Z,94965.34
2018-05-07T17:52:11.765Z,94990.93
2018-05-07T17:54:39.351Z,94987.63
2018-05-07T17:57:06.841Z,94988.38
2018-05-07T17:59:34.459Z,94987.21
2018-05-07T18:02:01.988Z,94990.32
2018-05-07T18:04:29.497Z,94991.42
2018-05-07T18:06:57.019Z,95000.25
2018-05-07T18:09:24.592Z,94999.86
2018-05-07T18:11:52.129Z,94996.48
2018-05-07T18:14:19.645Z,94993.95
2018-05-07T18:16:47.157Z,94994.75
2018-05-07T18:19:14.748Z,94993.37
2018-05-07T18:21:42.254Z,94987.70
2018-05-07T18:24:09.764Z,94990.32
2018-05-07T18:26:37.330Z,94992.34
2018-05-07T18:29:04.845Z,95000.06
2018-05-07T18:31:33.169Z,94991.68
2018-05-07T18:34:00.672Z,94999.13
2018-05-07T18:36:28.224Z,94994.97
2018-05-07T18:38:55.818Z,94993.48
2018-05-07T18:41:23.274Z,94990.91
2018-05-07T18:43:50.793Z,94991.51
2018-05-07T18:46:18.294Z,94991.08
2018-05-07T18:48:45.804Z,94992.64
2018-05-07T18:51:13.356Z,94991.92
2018-05-07T18:53:40.881Z,94988.95
2018-05-07T18:56:08.380Z,94992.27
2018-05-07T18:58:36.741Z,94995.87
2018-05-07T19:01:04.253Z,94998.81
2018-05-07T19:03:31.794Z,94985.13
2018-05-07T19:05:59.306Z,94997.28
2018-05-07T19:08:26.839Z,94994.19
2018-05-07T19:10:54.397Z,95002.78
2018-05-07T19:13:21.907Z,95009.67
2018-05-07T19:15:49.457Z,95003.00
2018-05-07T19:18:16.967Z,95013.78
2018-05-07T19:20:44.519Z,95010.66
2018-05-07T19:23:12.032Z,95005.38
2018-05-07T19:25:39.565Z,95004.02
2018-05-07T19:28:07.101Z,94998.34
2018-05-07T19:30:35.435Z,94997.16
2018-05-07T19:33:02.956Z,94973.14
2018-05-07T19:35:30.451Z,94990.14
2018-05-07T19:37:57.975Z,94990.54
2018-05-07T19:40:25.490Z,94988.42
2018-05-07T19:42:52.987Z,94995.44
2018-05-07T19:45:20.546Z,94985.69
2018-05-07T19:47:48.180Z,94994.86
2018-05-07T19:50:15.658Z,95002.66
2018-05-07T19:52:43.166Z,94994.66
2018-05-07T19:55:10.743Z,94995.03
2018-05-07T19:57:38.284Z,94991.34
2018-05-07T20:00:05.836Z,94993.30
2018-05-07T20:02:33.382Z,94992.34
2018-05-07T20:05:00.887Z,94987.44
2018-05-07T20:10:10.386Z,94981.98
2018-05-07T20:12:37.969Z,94974.59
2018-05-07T20:15:05.433Z,94968.13
2018-05-07T20:17:32.950Z,94959.93
2018-05-07T20:20:00.463Z,94974.16
2018-05-07T20:22:28.009Z,94971.63
2018-05-07T20:24:55.515Z,94971.04
2018-05-07T20:27:23.015Z,94949.20
2018-05-07T20:29:50.525Z,94971.83
2018-05-07T20:32:18.033Z,94977.10
2018-05-07T20:34:45.541Z,94976.91
2018-05-07T20:37:13.092Z,94969.09
2018-05-07T20:39:40.670Z,94952.70
2018-05-07T20:42:08.239Z,94971.43
2018-05-07T20:44:35.754Z,94963.22
2018-05-07T20:47:03.265Z,94961.09
2018-05-07T20:49:30.788Z,94956.22
2018-05-07T20:51:58.293Z,94968.34
2018-05-07T20:54:25.841Z,94965.20
2018-05-07T20:56:53.400Z,94969.11
2018-05-07T20:59:20.949Z,94970.66
2018-05-07T21:01:48.532Z,94966.97
2018-05-07T21:04:16.046Z,94964.03
2018-05-07T21:06:43.564Z,94963.64
2018-05-07T21:09:11.075Z,94962.30
2018-05-07T21:11:38.585Z,94961.85
2018-05-07T21:14:06.096Z,94950.38
2018-05-07T21:16:33.597Z,94964.02
2018-05-07T21:19:01.090Z,94965.95
2018-05-07T21:21:28.596Z,94963.42
2018-05-07T21:23:56.099Z,94961.67
2018-05-07T21:26:23.597Z,94962.83
2018-05-07T21:28:51.107Z,94958.33
2018-05-07T21:31:18.659Z,94956.00
2018-05-07T21:33:46.162Z,94963.03
2018-05-07T21:36:13.676Z,94950.33
2018-05-07T21:38:41.176Z,94953.48
2018-05-07T21:41:08.685Z,94959.09
2018-05-07T21:43:36.236Z,94958.91
2018-05-07T21:46:03.743Z,94950.90
2018-05-07T21:48:31.266Z,94936.48
2018-05-07T21:50:58.815Z,94946.82
2018-05-07T21:53:26.323Z,94940.41
2018-05-07T21:55:53.879Z,94934.54
2018-05-07T21:58:21.379Z,94939.22
2018-05-07T22:00:48.920Z,94941.56
2018-05-07T22:03:16.410Z,94943.33
2018-05-07T22:05:43.954Z,94941.56
2018-05-07T22:08:11.462Z,94929.48
2018-05-07T22:10:38.969Z,94941.80
2018-05-07T22:13:06.473Z,94936.91
2018-05-07T22:15:34.007Z,94944.52
2018-05-07T22:18:01.519Z,94938.44
2018-05-07T22:20:29.041Z,94938.63
2018-05-07T22:22:56.543Z,94941.80
2018-05-07T22:25:24.047Z,94933.98
2018-05-07T22:27:51.567Z,94922.25
2018-05-07T22:30:19.114Z,94924.60
2018-05-07T22:32:46.621Z,94927.52
2018-05-07T22:35:14.125Z,94923.02
2018-05-07T22:37:41.662Z,94915.59
2018-05-07T22:40:09.158Z,94923.41
2018-05-07T22:42:37.017Z,94917.37
2018-05-07T22:45:04.515Z,94921.27
2018-05-07T22:47:32.054Z,94922.45
2018-05-07T22:49:59.574Z,94916.38
2018-05-07T22:52:27.098Z,94915.22
2018-05-07T22:55:25.084Z,94905.08
2018-05-07T22:57:52.574Z,94911.34
2018-05-07T23:00:20.063Z,94905.08
2018-05-07T23:02:48.513Z,94902.72
2018-05-07T23:05:16.046Z,94905.83
2018-05-07T23:07:43.539Z,94904.67
2018-05-07T23:10:11.060Z,94905.26
2018-05-07T23:12:38.589Z,94902.75
2018-05-07T23:15:06.095Z,94900.80
2018-05-07T23:17:33.616Z,94901.57
2018-05-07T23:20:01.118Z,94898.44
2018-05-07T23:22:28.619Z,94898.84
2018-05-07T23:24:56.121Z,94893.20
2018-05-07T23:27:23.627Z,94894.16
2018-05-07T23:29:51.170Z,94888.31
2018-05-07T23:32:18.663Z,94893.58
2018-05-07T23:34:46.164Z,94891.44
2018-05-07T23:37:13.669Z,94892.19
2018-05-07T23:39:41.165Z,94892.02
2018-05-07T23:42:08.658Z,94891.63
2018-05-07T23:44:36.162Z,94887.53
2018-05-07T23:47:03.660Z,94891.63
2018-05-07T23:49:31.158Z,94886.75
2018-05-07T23:51:58.660Z,94885.20
2018-05-07T23:54:26.177Z,94881.87
2018-05-07T23:56:53.670Z,94880.13
2018-05-07T23:59:21.217Z,94876.23
